createdAt,value
2022-08-11T00:00:01.222Z,101890.81
2022-08-11T00:02:37.352Z,101887.38
2022-08-11T00:05:09.609Z,101878.56
2022-08-11T00:07:47.118Z,101882.25
2022-08-11T00:10:17.629Z,101886.88
2022-08-11T00:12:51.780Z,101888.78
2022-08-11T00:15:25.031Z,101890.69
2022-08-11T00:17:58.799Z,101890.91
2022-08-11T00:20:35.879Z,101891.00
2022-08-11T00:23:12.032Z,101884.00
2022-08-11T00:25:43.083Z,101889.50
2022-08-11T00:28:30.900Z,101883.44
2022-08-11T00:31:06.056Z,101888.88
2022-08-11T00:33:44.085Z,101886.25
2022-08-11T00:36:16.485Z,101887.19
2022-08-11T00:38:47.818Z,101901.66
2022-08-11T00:41:30.382Z,101887.31
2022-08-11T00:44:26.201Z,101892.81
2022-08-11T00:47:06.770Z,101891.97
2022-08-11T00:49:46.530Z,101897.47
2022-08-11T00:52:26.681Z,101888.78
2022-08-11T00:55:35.790Z,101886.28
2022-08-11T00:58:41.239Z,101890.94
2022-08-11T01:01:26.033Z,101899.25
2022-08-11T01:04:55.225Z,101900.28
2022-08-11T01:08:02.818Z,101895.13
2022-08-11T01:10:55.930Z,101894.41
2022-08-11T01:13:51.454Z,101900.81
2022-08-11T01:16:47.827Z,101900.03
2022-08-11T01:20:47.588Z,101902.84
2022-08-11T01:23:39.081Z,101902.00
2022-08-11T01:26:56.158Z,101901.22
2022-08-11T01:30:17.439Z,101896.06
2022-08-11T01:33:19.994Z,101897.94
2022-08-11T01:36:38.744Z,101896.28
2022-08-11T01:39:53.337Z,101891.03
2022-08-11T01:43:10.372Z,101902.81
2022-08-11T01:45:51.173Z,101895.81
2022-08-11T01:48:35.453Z,101901.22
2022-08-11T01:51:16.892Z,101896.00
2022-08-11T01:53:58.044Z,101902.44
2022-08-11T01:56:57.116Z,101893.56
2022-08-11T01:59:30.583Z,101895.53
2022-08-11T02:02:46.575Z,101901.81
2022-08-11T02:05:28.865Z,101899.38
2022-08-11T02:08:06.221Z,101901.31
2022-08-11T02:11:04.880Z,101896.88
2022-08-11T02:13:48.847Z,101903.16
2022-08-11T02:16:28.385Z,101899.75
2022-08-11T02:19:24.349Z,101896.25
2022-08-11T02:22:17.069Z,101891.84
2022-08-11T02:24:52.574Z,101890.19
2022-08-11T02:27:25.820Z,101897.44
2022-08-11T02:30:07.426Z,101892.22
2022-08-11T02:33:01.950Z,101896.75
2022-08-11T02:35:43.196Z,101896.03
2022-08-11T02:38:24.790Z,101893.47
2022-08-11T02:41:03.840Z,101898.03
2022-08-11T02:43:51.003Z,101896.38
2022-08-11T02:46:26.769Z,101906.38
2022-08-11T02:49:24.050Z,101906.44
2022-08-11T02:52:04.951Z,101904.78
2022-08-11T02:54:43.276Z,101909.34
2022-08-11T02:57:24.467Z,101905.00
2022-08-11T02:59:57.824Z,101907.78
2022-08-11T03:02:45.913Z,101903.44
2022-08-11T03:05:25.090Z,101904.59
2022-08-11T03:08:24.780Z,101901.97
2022-08-11T03:11:19.763Z,101905.56
2022-08-11T03:14:13.287Z,101897.56
2022-08-11T03:16:52.955Z,101901.34
2022-08-11T03:19:33.334Z,101899.63
2022-08-11T03:22:09.438Z,101904.13
2022-08-11T03:24:58.698Z,101897.09
2022-08-11T03:27:47.346Z,101905.25
2022-08-11T03:30:18.891Z,101906.25
2022-08-11T03:33:18.897Z,101901.88
2022-08-11T03:36:01.783Z,101903.69
2022-08-11T03:38:45.127Z,101898.38
2022-08-11T03:42:01.363Z,101910.88
2022-08-11T03:45:03.294Z,101910.03
2022-08-11T03:47:52.314Z,101900.31
2022-08-11T03:50:35.843Z,101904.81
2022-08-11T03:53:15.574Z,101910.19
2022-08-11T03:56:13.469Z,101910.19
2022-08-11T03:59:06.201Z,101913.78
2022-08-11T04:02:04.159Z,101907.69
2022-08-11T04:05:09.186Z,101901.50
2022-08-11T04:08:20.842Z,101908.72
2022-08-11T04:11:39.297Z,101906.91
2022-08-11T04:14:56.157Z,101898.00
2022-08-11T04:18:01.075Z,101899.84
2022-08-11T04:20:53.017Z,101902.56
2022-08-11T04:24:12.938Z,101903.44
2022-08-11T04:27:36.834Z,101899.84
2022-08-11T04:30:13.216Z,101899.84
2022-08-11T04:33:03.811Z,101905.09
2022-08-11T04:35:48.806Z,101901.50
2022-08-11T04:38:59.805Z,101908.56
2022-08-11T04:42:31.371Z,101906.75
2022-08-11T04:45:36.466Z,101903.06
2022-08-11T04:48:42.332Z,101913.72
2022-08-11T04:51:50.116Z,101910.94
2022-08-11T04:54:58.916Z,101910.81
2022-08-11T04:57:59.665Z,101909.84
2022-08-11T05:00:54.200Z,101912.34
2022-08-11T05:03:44.290Z,101914.94
2022-08-11T05:06:44.000Z,101909.47
2022-08-11T05:09:28.460Z,101912.06
2022-08-11T05:12:23.889Z,101899.38
2022-08-11T05:15:10.796Z,101907.38
2022-08-11T05:18:03.236Z,101904.53
2022-08-11T05:20:58.743Z,101900.03
2022-08-11T05:23:46.651Z,101905.19
2022-08-11T05:26:47.574Z,101908.59
2022-08-11T05:29:53.960Z,101903.06
2022-08-11T05:32:41.828Z,101906.44
2022-08-11T05:35:59.824Z,101906.44
2022-08-11T05:38:18.250Z,101908.19
2022-08-11T05:41:08.128Z,101909.75
2022-08-11T05:44:19.667Z,101913.16
2022-08-11T05:47:08.023Z,101915.66
2022-08-11T05:49:53.865Z,101906.53
2022-08-11T05:52:43.390Z,101907.19
2022-08-11T05:55:31.686Z,101906.97
2022-08-11T05:58:04.952Z,101907.75
2022-08-11T06:00:43.114Z,101901.31
2022-08-11T06:03:12.248Z,101902.84
2022-08-11T06:05:44.215Z,101908.09
2022-08-11T06:08:14.056Z,101909.66
2022-08-11T06:10:44.350Z,101919.25
2022-08-11T06:13:17.304Z,101909.22
2022-08-11T06:15:48.307Z,101913.50
2022-08-11T06:18:17.581Z,101914.16
2022-08-11T06:20:48.505Z,101914.78
2022-08-11T06:23:19.531Z,101908.31
2022-08-11T06:25:48.133Z,101903.72
2022-08-11T06:28:20.710Z,101898.22
2022-08-11T06:30:51.509Z,101897.00
2022-08-11T06:33:30.999Z,101893.16
2022-08-11T06:36:06.737Z,101896.56
2022-08-11T06:38:58.097Z,101891.00
2022-08-11T06:41:31.692Z,101899.72
2022-08-11T06:44:17.557Z,101902.06
2022-08-11T06:46:51.028Z,101905.41
2022-08-11T06:49:38.573Z,101901.59
2022-08-11T06:52:32.141Z,101897.75
2022-08-11T06:55:05.693Z,101901.88
2022-08-11T06:57:53.098Z,101897.94
2022-08-11T07:00:30.450Z,101904.78
2022-08-11T07:03:08.675Z,101898.19
2022-08-11T07:05:46.136Z,101902.38
2022-08-11T07:08:58.853Z,101904.69
2022-08-11T07:12:13.746Z,101906.88
2022-08-11T07:15:07.960Z,101901.22
2022-08-11T07:17:42.730Z,101911.75
2022-08-11T07:20:31.741Z,101904.38
2022-08-11T07:23:21.005Z,101907.59
2022-08-11T07:26:11.340Z,101902.69
2022-08-11T07:28:56.552Z,101901.38
2022-08-11T07:31:31.549Z,101909.22
2022-08-11T07:34:12.229Z,101898.97
2022-08-11T07:36:51.814Z,101901.16
2022-08-11T07:39:22.691Z,101907.00
2022-08-11T07:41:53.241Z,101910.34
2022-08-11T07:44:22.350Z,101906.47
2022-08-11T07:47:09.215Z,101905.25
2022-08-11T07:49:57.318Z,101901.97
2022-08-11T07:53:07.257Z,101901.66
2022-08-11T07:55:51.308Z,101904.16
2022-08-11T07:58:45.038Z,101901.66
2022-08-11T08:01:37.310Z,101900.47
2022-08-11T08:04:25.138Z,101903.69
2022-08-11T08:07:12.246Z,101905.00
2022-08-11T08:09:58.994Z,101903.88
2022-08-11T08:12:46.655Z,101905.13
2022-08-11T08:15:34.392Z,101909.31
2022-08-11T08:18:10.026Z,101899.75
2022-08-11T08:20:56.559Z,101905.88
2022-08-11T08:23:34.449Z,101897.44
2022-08-11T08:26:05.612Z,101897.84
2022-08-11T08:28:46.577Z,101893.63
2022-08-11T08:31:14.994Z,101892.09
2022-08-11T08:33:44.743Z,101895.22
2022-08-11T08:36:15.256Z,101886.47
2022-08-11T08:38:45.003Z,101887.38
2022-08-11T08:41:17.286Z,101886.78
2022-08-11T08:43:52.745Z,101889.06
2022-08-11T08:46:28.117Z,101888.19
2022-08-11T08:48:57.827Z,101889.44
2022-08-11T08:52:01.926Z,101885.25
2022-08-11T08:54:32.226Z,101880.03
2022-08-11T08:57:04.274Z,101881.25
2022-08-11T08:59:48.421Z,101876.97
2022-08-11T09:02:22.125Z,101875.44
2022-08-11T09:05:05.297Z,101878.03
2022-08-11T09:07:39.913Z,101867.72
2022-08-11T09:10:11.560Z,101865.47
2022-08-11T09:12:46.630Z,101864.50
2022-08-11T09:15:20.261Z,101865.00
2022-08-11T09:17:51.364Z,101858.13
2022-08-11T09:20:24.915Z,101860.53
2022-08-11T09:26:30.904Z,101855.13
2022-08-11T09:29:01.556Z,101851.22
2022-08-11T09:31:39.021Z,101843.63
2022-08-11T09:34:08.927Z,101847.00
2022-08-11T09:36:54.802Z,101841.66
2022-08-11T09:39:40.673Z,101847.06
2022-08-11T09:42:11.343Z,101845.78
2022-08-11T09:44:50.833Z,101836.09
2022-08-11T09:47:24.306Z,101831.31
2022-08-11T09:49:54.831Z,101828.34
2022-08-11T09:52:25.065Z,101833.34
2022-08-11T09:54:54.462Z,101824.97
2022-08-11T09:57:41.171Z,101823.41
2022-08-11T10:00:14.170Z,101825.91
2022-08-11T10:02:46.123Z,101829.78
2022-08-11T10:05:35.994Z,101816.59
2022-08-11T10:08:05.682Z,101815.03
2022-08-11T10:10:37.473Z,101812.00
2022-08-11T10:14:31.187Z,101808.09
2022-08-11T10:15:59.974Z,101803.78
2022-08-11T10:18:52.346Z,101801.81
2022-08-11T10:21:28.493Z,101791.72
2022-08-11T10:24:17.489Z,101789.56
2022-08-11T10:26:55.725Z,101777.38
2022-08-11T10:29:44.391Z,101781.19
2022-08-11T10:32:52.277Z,101775.44
2022-08-11T10:35:30.648Z,101769.66
2022-08-11T10:38:07.599Z,101765.53
2022-08-11T10:40:40.188Z,101766.41
2022-08-11T10:43:13.722Z,101760.97
2022-08-11T10:46:04.290Z,101753.72
2022-08-11T10:48:38.551Z,101763.25
2022-08-11T10:51:15.273Z,101755.56
2022-08-11T10:54:03.099Z,101754.25
2022-08-11T10:56:51.861Z,101752.59
2022-08-11T10:59:20.201Z,101748.38
2022-08-11T11:01:50.012Z,101750.88
2022-08-11T11:04:22.055Z,101746.38
2022-08-11T11:07:00.403Z,101750.94
2022-08-11T11:09:32.408Z,101741.91
2022-08-11T11:12:22.212Z,101740.50
2022-08-11T11:15:17.998Z,101739.25
2022-08-11T11:18:01.562Z,101742.72
2022-08-11T11:20:38.430Z,101739.03
2022-08-11T11:23:16.669Z,101735.66
2022-08-11T11:26:10.704Z,101730.13
2022-08-11T11:28:57.974Z,101724.09
2022-08-11T11:31:34.955Z,101724.34
2022-08-11T11:34:20.087Z,101721.97
2022-08-11T11:36:50.434Z,101720.88
2022-08-11T11:39:23.743Z,101725.22
2022-08-11T11:41:54.578Z,101718.44
2022-08-11T11:44:23.663Z,101718.31
2022-08-11T11:46:52.760Z,101724.53
2022-08-11T11:51:58.819Z,101714.72
2022-08-11T11:54:30.990Z,101720.84
2022-08-11T11:57:20.747Z,101715.66
2022-08-11T12:00:07.487Z,101707.69
2022-08-11T12:02:38.240Z,101709.56
2022-08-11T12:05:07.490Z,101707.22
2022-08-11T12:08:10.593Z,101706.06
2022-08-11T12:10:45.808Z,101705.84
2022-08-11T12:13:32.528Z,101700.00
2022-08-11T12:16:31.803Z,101694.44
2022-08-11T12:18:54.031Z,101696.56
2022-08-11T12:21:23.803Z,101690.59
2022-08-11T12:24:10.468Z,101694.94
2022-08-11T12:27:14.972Z,101687.38
2022-08-11T12:29:43.930Z,101681.81
2022-08-11T12:32:12.173Z,101677.84
2022-08-11T12:34:40.324Z,101676.09
2022-08-11T12:37:13.503Z,101669.94
2022-08-11T12:40:16.170Z,101669.06
2022-08-11T12:43:21.750Z,101658.78
2022-08-11T12:45:58.324Z,101665.00
2022-08-11T12:48:58.448Z,101656.31
2022-08-11T12:52:00.730Z,101643.91
2022-08-11T12:54:47.078Z,101642.06
2022-08-11T12:57:37.416Z,101640.19
2022-08-11T13:00:26.167Z,101635.13
2022-08-11T13:03:14.087Z,101635.00
2022-08-11T13:05:44.961Z,101633.16
2022-08-11T13:08:15.622Z,101619.25
2022-08-11T13:11:08.155Z,101622.63
2022-08-11T13:13:52.564Z,101622.72
2022-08-11T13:16:29.224Z,101625.22
2022-08-11T13:18:58.668Z,101624.31
2022-08-11T13:21:28.061Z,101611.09
2022-08-11T13:24:00.999Z,101608.75
2022-08-11T13:26:48.102Z,101601.31
2022-08-11T13:29:20.307Z,101603.75
2022-08-11T13:31:50.383Z,101603.44
2022-08-11T13:34:19.958Z,101597.50
2022-08-11T13:36:50.270Z,101595.63
2022-08-11T13:39:19.292Z,101595.69
2022-08-11T13:41:49.417Z,101602.28
2022-08-11T13:44:24.795Z,101591.03
2022-08-11T13:46:57.348Z,101595.09
2022-08-11T13:49:27.434Z,101595.06
2022-08-11T13:51:57.009Z,101593.19
2022-08-11T13:54:28.085Z,101591.44
2022-08-11T13:57:01.316Z,101589.19
2022-08-11T13:59:31.121Z,101582.66
2022-08-11T14:02:21.939Z,101584.97
2022-08-11T14:04:57.353Z,101578.00
2022-08-11T14:07:28.565Z,101573.28
2022-08-11T14:09:59.187Z,101576.75
2022-08-11T14:12:46.838Z,101582.91
2022-08-11T14:15:20.764Z,101571.00
2022-08-11T14:17:55.926Z,101575.91
2022-08-11T14:20:39.468Z,101562.47
2022-08-11T14:23:12.223Z,101559.72
2022-08-11T14:26:02.942Z,101558.19
2022-08-11T14:28:43.792Z,101553.66
2022-08-11T14:31:14.208Z,101548.88
2022-08-11T14:33:59.613Z,101555.22
2022-08-11T14:36:34.904Z,101558.91
2022-08-11T14:39:06.875Z,101554.34
2022-08-11T14:42:12.605Z,101550.56
2022-08-11T14:45:00.392Z,101545.28
2022-08-11T14:47:30.897Z,101545.19
2022-08-11T14:50:10.879Z,101545.47
2022-08-11T14:52:45.122Z,101544.66
2022-08-11T14:55:32.195Z,101542.38
2022-08-11T14:58:01.674Z,101540.72
2022-08-11T15:00:30.244Z,101538.38
2022-08-11T15:03:10.997Z,101527.19
2022-08-11T15:05:56.813Z,101539.88
2022-08-11T15:08:49.091Z,101541.91
2022-08-11T15:11:36.352Z,101530.69
2022-08-11T15:14:07.314Z,101526.63
2022-08-11T15:16:54.907Z,101529.22
2022-08-11T15:19:23.452Z,101516.72
2022-08-11T15:22:10.005Z,101513.22
2022-08-11T15:24:38.373Z,101513.41
2022-08-11T15:27:29.828Z,101513.34
2022-08-11T15:30:32.491Z,101514.16
2022-08-11T15:33:23.163Z,101517.16
2022-08-11T15:36:09.669Z,101495.41
2022-08-11T15:38:43.811Z,101495.09
2022-08-11T15:41:34.074Z,101499.03
2022-08-11T15:44:51.371Z,101499.09
2022-08-11T15:47:21.359Z,101489.09
2022-08-11T15:50:12.721Z,101484.81
2022-08-11T15:52:49.339Z,101476.75
2022-08-11T15:55:20.443Z,101487.81
2022-08-11T15:58:09.016Z,101484.03
2022-08-11T16:00:59.114Z,101484.22
2022-08-11T16:04:06.347Z,101478.66
2022-08-11T16:06:38.946Z,101479.03
2022-08-11T16:09:18.488Z,101474.44
2022-08-11T16:11:50.511Z,101470.41
2022-08-11T16:14:43.476Z,101475.59
2022-08-11T16:17:17.076Z,101472.22
2022-08-11T16:19:47.821Z,101458.06
2022-08-11T16:22:32.476Z,101459.78
2022-08-11T16:27:03.734Z,101455.72
2022-08-11T16:27:53.029Z,101453.38
2022-08-11T16:30:21.427Z,101464.22
2022-08-11T16:32:52.994Z,101453.63
2022-08-11T16:35:42.628Z,101451.22
2022-08-11T16:38:30.377Z,101444.53
2022-08-11T16:41:01.125Z,101455.72
2022-08-11T16:43:50.492Z,101450.34
2022-08-11T16:46:37.704Z,101452.00
2022-08-11T16:49:07.758Z,101445.38
2022-08-11T16:51:35.809Z,101447.81
2022-08-11T16:54:05.946Z,101450.38
2022-08-11T16:56:39.731Z,101439.53
2022-08-11T16:59:17.283Z,101445.22
2022-08-11T17:01:53.670Z,101446.63
2022-08-11T17:04:53.586Z,101438.19
2022-08-11T17:07:43.137Z,101441.13
2022-08-11T17:11:00.049Z,101448.56
2022-08-11T17:13:37.959Z,101450.09
2022-08-11T17:16:12.811Z,101453.41
2022-08-11T17:18:52.471Z,101440.53
2022-08-11T17:21:23.883Z,101436.84
2022-08-11T17:23:55.065Z,101439.84
2022-08-11T17:26:51.482Z,101437.13
2022-08-11T17:29:22.513Z,101439.06
2022-08-11T17:32:10.953Z,101434.56
2022-08-11T17:34:58.770Z,101433.81
2022-08-11T17:37:30.578Z,101438.88
2022-08-11T17:39:59.240Z,101428.47
2022-08-11T17:42:49.175Z,101430.69
2022-08-11T17:45:37.029Z,101438.28
2022-08-11T17:48:25.047Z,101433.97
2022-08-11T17:50:54.749Z,101437.50
2022-08-11T17:53:40.592Z,101435.47
2022-08-11T17:56:49.470Z,101448.09
2022-08-11T17:59:36.281Z,101452.19
2022-08-11T18:02:20.679Z,101450.56
2022-08-11T18:04:59.152Z,101447.53
2022-08-11T18:07:44.615Z,101449.94
2022-08-11T18:10:30.522Z,101454.63
2022-08-11T18:13:16.827Z,101452.91
2022-08-11T18:16:04.767Z,101454.97
2022-08-11T18:18:49.961Z,101445.78
2022-08-11T18:21:39.456Z,101451.97
2022-08-11T18:24:29.421Z,101450.09
2022-08-11T18:27:17.157Z,101464.28
2022-08-11T18:30:10.695Z,101465.84
2022-08-11T18:33:25.017Z,101467.47
2022-08-11T18:36:09.329Z,101465.13
2022-08-11T18:38:57.865Z,101468.22
2022-08-11T18:41:45.866Z,101471.59
2022-08-11T18:44:34.683Z,101475.63
2022-08-11T18:47:28.897Z,101476.69
2022-08-11T18:50:22.002Z,101477.03
2022-08-11T18:53:24.949Z,101476.63
2022-08-11T18:56:12.182Z,101475.94
2022-08-11T18:59:02.021Z,101479.09
2022-08-11T19:01:54.793Z,101484.69
2022-08-11T19:04:41.634Z,101484.97
2022-08-11T19:07:30.090Z,101485.09
2022-08-11T19:10:17.807Z,101485.22
2022-08-11T19:13:06.186Z,101489.72
2022-08-11T19:15:53.966Z,101500.59
2022-08-11T19:18:41.945Z,101496.03
2022-08-11T19:21:29.594Z,101493.91
2022-08-11T19:24:17.357Z,101497.38
2022-08-11T19:27:04.190Z,101496.38
2022-08-11T19:30:06.908Z,101501.53
2022-08-11T19:33:00.240Z,101499.63
2022-08-11T19:35:46.882Z,101504.94
2022-08-11T19:38:32.744Z,101507.38
2022-08-11T19:41:51.804Z,101502.66
2022-08-11T19:44:25.798Z,101515.22
2022-08-11T19:47:14.283Z,101511.22
2022-08-11T19:50:02.701Z,101510.16
2022-08-11T19:52:49.174Z,101510.84
2022-08-11T19:55:35.920Z,101516.97
2022-08-11T19:58:21.735Z,101510.50
2022-08-11T20:01:07.540Z,101513.16
2022-08-11T20:03:54.013Z,101512.72
2022-08-11T20:06:41.058Z,101509.72
2022-08-11T20:09:28.528Z,101507.53
2022-08-11T20:12:34.979Z,101509.91
2022-08-11T20:15:21.519Z,101513.19
2022-08-11T20:18:07.337Z,101513.09
2022-08-11T20:20:54.946Z,101518.84
2022-08-11T20:23:41.216Z,101516.91
2022-08-11T20:26:31.265Z,101526.34
2022-08-11T20:29:19.793Z,101524.16
2022-08-11T20:32:06.425Z,101525.56
2022-08-11T20:34:56.212Z,101516.88
2022-08-11T20:37:46.701Z,101521.78
2022-08-11T20:40:37.453Z,101524.00
2022-08-11T20:44:06.210Z,101518.38
2022-08-11T20:46:31.869Z,101524.09
2022-08-11T20:49:20.659Z,101523.56
2022-08-11T20:52:06.251Z,101530.34
2022-08-11T20:54:54.779Z,101527.00
2022-08-11T20:58:04.189Z,101530.78
2022-08-11T21:00:47.729Z,101531.16
2022-08-11T21:03:36.205Z,101530.41
2022-08-11T21:06:33.021Z,101536.16
2022-08-11T21:09:23.842Z,101537.22
2022-08-11T21:15:46.969Z,101544.44
2022-08-11T21:18:36.857Z,101551.97
2022-08-11T21:21:26.342Z,101548.59
2022-08-11T21:24:16.252Z,101543.44
2022-08-11T21:27:05.688Z,101558.16
2022-08-11T21:29:54.686Z,101556.81
2022-08-11T21:32:42.459Z,101556.25
2022-08-11T21:35:29.112Z,101555.69
2022-08-11T21:38:17.357Z,101556.75
2022-08-11T21:41:04.920Z,101556.94
2022-08-11T21:43:51.759Z,101566.41
2022-08-11T21:46:41.136Z,101558.63
2022-08-11T21:49:28.476Z,101555.41
2022-08-11T21:52:13.653Z,101558.50
2022-08-11T21:54:59.915Z,101559.59
2022-08-11T21:57:47.778Z,101558.13
2022-08-11T22:00:35.021Z,101558.41
2022-08-11T22:03:23.340Z,101562.44
2022-08-11T22:06:09.614Z,101560.31
2022-08-11T22:08:55.447Z,101561.25
2022-08-11T22:11:41.223Z,101563.00
2022-08-11T22:14:26.388Z,101567.41
2022-08-11T22:17:11.782Z,101565.19
2022-08-11T22:20:01.059Z,101556.41
2022-08-11T22:22:53.181Z,101562.19
2022-08-11T22:25:51.045Z,101561.41
2022-08-11T22:28:37.188Z,101558.19
2022-08-11T22:31:24.307Z,101557.63
2022-08-11T22:34:10.078Z,101563.19
2022-08-11T22:36:57.992Z,101561.72
2022-08-11T22:39:45.888Z,101558.25
2022-08-11T22:42:48.761Z,101565.00
2022-08-11T22:45:34.268Z,101560.69
2022-08-11T22:48:20.692Z,101571.56
2022-08-11T22:51:06.594Z,101569.16
2022-08-11T22:53:58.512Z,101568.44
2022-08-11T22:56:46.678Z,101565.16
2022-08-11T22:59:34.401Z,101568.13
2022-08-11T23:02:20.677Z,101572.03
2022-08-11T23:05:07.651Z,101565.16
2022-08-11T23:07:54.194Z,101575.34
2022-08-11T23:10:42.218Z,101566.72
2022-08-11T23:13:28.021Z,101565.34
2022-08-11T23:16:14.353Z,101560.22
2022-08-11T23:19:00.475Z,101558.84
2022-08-11T23:21:46.723Z,101557.19
2022-08-11T23:24:32.923Z,101559.97
2022-08-11T23:27:21.233Z,101567.44
2022-08-11T23:30:09.414Z,101564.13
2022-08-11T23:32:56.256Z,101556.25
2022-08-11T23:35:53.969Z,101568.94
2022-08-11T23:38:42.437Z,101559.13
2022-08-11T23:41:28.846Z,101569.47
2022-08-11T23:44:17.028Z,101560.50
2022-08-11T23:47:03.402Z,101570.66
2022-08-11T23:49:49.646Z,101569.06
2022-08-11T23:52:36.427Z,101576.56
2022-08-11T23:55:22.667Z,101576.88
2022-08-11T23:58:08.463Z,101562.09
